createdAt,value
2018-07-05T00:01:19.081Z,100868.19
2018-07-05T00:04:05.755Z,100861.39
2018-07-05T00:06:52.205Z,100860.37
2018-07-05T00:09:38.775Z,100862.20
2018-07-05T00:12:25.394Z,100861.06
2018-07-05T00:15:11.833Z,100864.58
2018-07-05T00:17:58.534Z,100868.41
2018-07-05T00:20:45.023Z,100871.63
2018-07-05T00:23:31.831Z,100871.13
2018-07-05T00:26:18.752Z,100859.95
2018-07-05T00:29:05.877Z,100859.06
2018-07-05T00:31:53.032Z,100853.41
2018-07-05T00:34:39.909Z,100850.23
2018-07-05T00:37:26.991Z,100848.28
2018-07-05T00:40:13.577Z,100856.33
2018-07-05T00:43:00.149Z,100857.22
2018-07-05T00:45:47.113Z,100855.86
2018-07-05T00:48:34.032Z,100862.17
2018-07-05T00:51:20.910Z,100848.02
2018-07-05T00:54:07.486Z,100851.20
2018-07-05T00:56:53.933Z,100844.50
2018-07-05T00:59:40.570Z,100844.19
2018-07-05T01:02:27.227Z,100841.41
2018-07-05T01:05:13.827Z,100844.24
2018-07-05T01:08:00.390Z,100847.10
2018-07-05T01:10:46.975Z,100847.18
2018-07-05T01:13:33.626Z,100851.24
2018-07-05T01:16:20.082Z,100859.98
2018-07-05T01:19:06.661Z,100857.66
2018-07-05T01:21:53.224Z,100861.03
2018-07-05T01:24:39.905Z,100859.28
2018-07-05T01:27:26.376Z,100859.13
2018-07-05T01:30:12.821Z,100862.45
2018-07-05T01:32:59.515Z,100863.42
2018-07-05T01:35:46.365Z,100867.17
2018-07-05T01:38:32.887Z,100871.94
2018-07-05T01:41:20.268Z,100856.20
2018-07-05T01:44:06.759Z,100855.31
2018-07-05T01:46:53.359Z,100857.39
2018-07-05T01:49:39.787Z,100858.02
2018-07-05T01:52:26.405Z,100857.66
2018-07-05T01:55:13.070Z,100858.39
2018-07-05T01:57:59.633Z,100861.41
2018-07-05T02:00:46.088Z,100861.25
2018-07-05T02:03:32.648Z,100861.88
2018-07-05T02:06:19.224Z,100857.64
2018-07-05T02:09:05.896Z,100851.27
2018-07-05T02:11:52.504Z,100857.56
2018-07-05T02:14:39.585Z,100860.88
2018-07-05T02:17:26.542Z,100848.80
2018-07-05T02:20:13.542Z,100848.60
2018-07-05T02:23:00.007Z,100856.72
2018-07-05T02:25:46.643Z,100859.35
2018-07-05T02:28:33.095Z,100858.66
2018-07-05T02:31:19.656Z,100857.30
2018-07-05T02:34:11.455Z,100853.48
2018-07-05T02:36:58.574Z,100851.05
2018-07-05T02:39:49.053Z,100842.31
2018-07-05T02:42:35.462Z,100841.56
2018-07-05T02:45:22.208Z,100841.38
2018-07-05T02:48:08.837Z,100841.30
2018-07-05T02:50:55.984Z,100848.33
2018-07-05T02:53:43.136Z,100852.11
2018-07-05T02:56:29.704Z,100862.38
2018-07-05T02:59:16.683Z,100861.30
2018-07-05T03:02:03.543Z,100860.42
2018-07-05T03:04:50.773Z,100870.17
2018-07-05T03:07:37.555Z,100857.23
2018-07-05T03:10:24.392Z,100868.63
2018-07-05T03:13:11.169Z,100869.52
2018-07-05T03:15:57.741Z,100866.08
2018-07-05T03:18:44.307Z,100868.09
2018-07-05T03:21:31.296Z,100871.53
2018-07-05T03:24:18.325Z,100876.53
2018-07-05T03:27:05.302Z,100874.64
2018-07-05T03:29:52.135Z,100880.52
2018-07-05T03:32:39.098Z,100877.77
2018-07-05T03:35:25.985Z,100883.84
2018-07-05T03:38:12.792Z,100877.53
2018-07-05T03:40:59.709Z,100875.30
2018-07-05T03:43:46.762Z,100877.77
2018-07-05T03:46:33.203Z,100887.13
2018-07-05T03:49:20.453Z,100879.70
2018-07-05T03:52:07.317Z,100887.16
2018-07-05T03:54:54.048Z,100889.20
2018-07-05T03:57:40.861Z,100887.61
2018-07-05T04:00:27.557Z,100887.50
2018-07-05T04:03:14.608Z,100880.47
2018-07-05T04:06:01.084Z,100877.52
2018-07-05T04:08:47.677Z,100875.16
2018-07-05T04:11:34.305Z,100876.13
2018-07-05T04:14:20.959Z,100873.12
2018-07-05T04:17:07.435Z,100878.49
2018-07-05T04:19:53.926Z,100877.97
2018-07-05T04:22:40.899Z,100883.56
2018-07-05T04:25:27.884Z,100891.73
2018-07-05T04:28:14.682Z,100899.03
2018-07-05T04:31:01.321Z,100892.30
2018-07-05T04:33:48.193Z,100887.16
2018-07-05T04:36:35.302Z,100880.55
2018-07-05T04:39:22.358Z,100863.78
2018-07-05T04:42:09.420Z,100860.75
2018-07-05T04:44:56.022Z,100854.45
2018-07-05T04:47:42.801Z,100852.09
2018-07-05T04:50:29.498Z,100844.06
2018-07-05T04:53:16.343Z,100850.45
2018-07-05T04:56:03.132Z,100866.00
2018-07-05T04:58:50.858Z,100871.27
2018-07-05T05:01:37.719Z,100880.32
2018-07-05T05:04:24.488Z,100882.88
2018-07-05T05:07:11.059Z,100879.00
2018-07-05T05:09:57.947Z,100884.98
2018-07-05T05:12:44.644Z,100890.89
2018-07-05T05:15:31.421Z,100895.38
2018-07-05T05:18:18.053Z,100902.05
2018-07-05T05:21:04.872Z,100903.41
2018-07-05T05:23:51.613Z,100909.13
2018-07-05T05:26:38.211Z,100903.40
2018-07-05T05:29:25.025Z,100902.77
2018-07-05T05:32:11.721Z,100908.16
2018-07-05T05:34:58.572Z,100914.97
2018-07-05T05:37:45.445Z,100910.85
2018-07-05T05:40:32.404Z,100910.82
2018-07-05T05:43:19.265Z,100906.60
2018-07-05T05:46:06.218Z,100899.46
2018-07-05T05:48:52.836Z,100899.34
2018-07-05T05:51:39.478Z,100894.47
2018-07-05T05:54:26.250Z,100895.19
2018-07-05T05:57:13.227Z,100894.24
2018-07-05T05:59:59.952Z,100897.89
2018-07-05T06:02:46.916Z,100898.17
2018-07-05T06:05:33.806Z,100901.52
2018-07-05T06:08:21.154Z,100907.65
2018-07-05T06:11:07.751Z,100909.96
2018-07-05T06:13:54.609Z,100904.31
2018-07-05T06:16:41.163Z,100902.80
2018-07-05T06:19:28.116Z,100900.57
2018-07-05T06:22:15.630Z,100901.69
2018-07-05T06:25:02.301Z,100898.72
2018-07-05T06:27:48.851Z,100902.28
2018-07-05T06:30:35.861Z,100899.43
2018-07-05T06:33:23.494Z,100902.04
2018-07-05T06:36:10.503Z,100899.65
2018-07-05T06:38:57.387Z,100909.98
2018-07-05T06:41:44.499Z,100907.06
2018-07-05T06:44:31.348Z,100907.49
2018-07-05T06:47:18.086Z,100893.05
2018-07-05T06:50:05.015Z,100888.55
2018-07-05T06:52:51.989Z,100885.88
2018-07-05T06:55:38.891Z,100886.28
2018-07-05T06:58:25.449Z,100890.68
2018-07-05T07:01:11.995Z,100884.54
2018-07-05T07:03:58.565Z,100882.48
2018-07-05T07:06:45.160Z,100884.30
2018-07-05T07:09:31.769Z,100886.41
2018-07-05T07:12:18.394Z,100890.00
2018-07-05T07:15:04.892Z,100892.16
2018-07-05T07:17:51.723Z,100889.28
2018-07-05T07:20:38.616Z,100890.96
2018-07-05T07:23:25.142Z,100888.47
2018-07-05T07:26:11.593Z,100886.22
2018-07-05T07:28:58.190Z,100882.88
2018-07-05T07:31:45.604Z,100882.14
2018-07-05T07:34:32.203Z,100887.59
2018-07-05T07:37:18.713Z,100888.32
2018-07-05T07:40:05.348Z,100897.36
2018-07-05T07:42:39.513Z,100897.59
2018-07-05T07:45:07.668Z,100893.81
2018-07-05T07:47:35.768Z,100897.14
2018-07-05T07:50:04.049Z,100896.14
2018-07-05T07:52:32.346Z,100902.67
2018-07-05T07:55:00.379Z,100904.02
2018-07-05T07:57:28.416Z,100907.97
2018-07-05T07:59:56.436Z,100907.09
2018-07-05T08:02:24.581Z,100912.28
2018-07-05T08:04:52.741Z,100912.56
2018-07-05T08:07:20.813Z,100919.41
2018-07-05T08:09:49.232Z,100918.73
2018-07-05T08:12:17.296Z,100913.25
2018-07-05T08:14:45.544Z,100916.34
2018-07-05T08:17:13.721Z,100912.92
2018-07-05T08:19:41.784Z,100911.40
2018-07-05T08:22:09.882Z,100922.71
2018-07-05T08:24:37.933Z,100904.98
2018-07-05T08:27:05.967Z,100930.47
2018-07-05T08:29:34.244Z,100938.16
2018-07-05T08:32:02.668Z,100933.44
2018-07-05T08:34:31.074Z,100942.93
2018-07-05T08:36:59.184Z,100945.73
2018-07-05T08:39:27.221Z,100952.04
2018-07-05T08:41:55.278Z,100951.52
2018-07-05T08:44:23.598Z,100945.30
2018-07-05T08:46:51.655Z,100950.00
2018-07-05T08:49:19.685Z,100950.56
2018-07-05T08:51:47.720Z,100935.24
2018-07-05T08:54:15.868Z,100953.20
2018-07-05T08:56:43.997Z,100946.02
2018-07-05T08:59:12.100Z,100951.00
2018-07-05T09:01:40.249Z,100948.91
2018-07-05T09:04:08.592Z,100948.52
2018-07-05T09:06:37.013Z,100945.61
2018-07-05T09:09:05.748Z,100946.02
2018-07-05T09:11:34.013Z,100941.91
2018-07-05T09:14:02.145Z,100942.74
2018-07-05T09:16:30.179Z,100942.88
2018-07-05T09:18:58.529Z,100944.17
2018-07-05T09:21:26.576Z,100949.88
2018-07-05T09:23:54.877Z,100943.19
2018-07-05T09:26:23.189Z,100943.27
2018-07-05T09:28:51.470Z,100949.56
2018-07-05T09:31:19.868Z,100940.29
2018-07-05T09:33:47.956Z,100947.30
2018-07-05T09:36:16.265Z,100941.75
2018-07-05T09:38:44.345Z,100943.75
2018-07-05T09:41:12.663Z,100948.87
2018-07-05T09:43:41.177Z,100945.00
2018-07-05T09:46:09.616Z,100933.64
2018-07-05T09:48:37.771Z,100931.69
2018-07-05T09:51:06.061Z,100930.06
2018-07-05T09:53:34.080Z,100932.26
2018-07-05T09:56:02.560Z,100937.34
2018-07-05T09:58:31.002Z,100940.23
2018-07-05T10:00:59.043Z,100933.57
2018-07-05T10:03:27.096Z,100930.72
2018-07-05T10:05:55.147Z,100930.52
2018-07-05T10:08:23.577Z,100926.50
2018-07-05T10:10:51.584Z,100924.98
2018-07-05T10:13:19.681Z,100924.84
2018-07-05T10:15:48.216Z,100937.55
2018-07-05T10:18:16.244Z,100933.14
2018-07-05T10:20:44.401Z,100932.63
2018-07-05T10:23:12.548Z,100922.51
2018-07-05T10:25:40.615Z,100925.88
2018-07-05T10:28:09.080Z,100920.39
2018-07-05T10:30:49.409Z,100915.92
2018-07-05T10:33:36.256Z,100922.56
2018-07-05T10:36:10.214Z,100916.42
2018-07-05T10:38:39.437Z,100911.25
2018-07-05T10:41:19.691Z,100910.13
2018-07-05T10:44:06.381Z,100907.73
2018-07-05T10:46:52.844Z,100903.22
2018-07-05T10:49:39.500Z,100909.13
2018-07-05T10:52:26.045Z,100901.11
2018-07-05T10:55:12.766Z,100899.39
2018-07-05T10:57:59.370Z,100894.35
2018-07-05T11:00:45.817Z,100884.18
2018-07-05T11:03:32.779Z,100888.97
2018-07-05T11:06:19.770Z,100884.00
2018-07-05T11:09:07.166Z,100882.27
2018-07-05T11:11:54.390Z,100882.62
2018-07-05T11:14:41.386Z,100877.84
2018-07-05T11:17:28.203Z,100875.14
2018-07-05T11:20:15.518Z,100874.99
2018-07-05T11:23:02.291Z,100876.19
2018-07-05T11:25:49.793Z,100884.30
2018-07-05T11:28:36.702Z,100882.56
2018-07-05T11:31:23.551Z,100881.36
2018-07-05T11:34:10.371Z,100880.72
2018-07-05T11:36:57.334Z,100882.80
2018-07-05T11:39:44.256Z,100877.05
2018-07-05T11:42:31.398Z,100876.84
2018-07-05T11:45:18.397Z,100870.33
2018-07-05T11:48:04.905Z,100861.38
2018-07-05T11:50:51.601Z,100859.38
2018-07-05T11:53:38.194Z,100851.80
2018-07-05T11:56:24.755Z,100854.34
2018-07-05T11:59:12.372Z,100849.99
2018-07-05T12:01:59.783Z,100851.50
2018-07-05T12:04:46.181Z,100847.92
2018-07-05T12:07:33.038Z,100857.87
2018-07-05T12:10:19.785Z,100854.55
2018-07-05T12:13:06.751Z,100859.27
2018-07-05T12:15:53.891Z,100850.80
2018-07-05T12:18:40.825Z,100857.55
2018-07-05T12:21:27.720Z,100854.52
2018-07-05T12:24:14.855Z,100854.40
2018-07-05T12:27:01.429Z,100855.49
2018-07-05T12:29:47.985Z,100851.68
2018-07-05T12:32:34.595Z,100846.00
2018-07-05T12:35:21.213Z,100848.33
2018-07-05T12:38:07.844Z,100843.98
2018-07-05T12:40:54.409Z,100835.09
2018-07-05T12:43:40.924Z,100833.80
2018-07-05T12:46:27.782Z,100832.97
2018-07-05T12:49:14.426Z,100834.78
2018-07-05T12:52:00.977Z,100829.75
2018-07-05T12:54:47.828Z,100824.38
2018-07-05T12:57:34.657Z,100821.31
2018-07-05T13:00:21.645Z,100821.80
2018-07-05T13:03:08.237Z,100820.00
2018-07-05T13:05:54.860Z,100811.61
2018-07-05T13:08:41.665Z,100807.69
2018-07-05T13:11:28.488Z,100809.57
2018-07-05T13:14:15.055Z,100799.94
2018-07-05T13:17:02.053Z,100795.55
2018-07-05T13:19:48.705Z,100797.33
2018-07-05T13:22:35.541Z,100791.89
2018-07-05T13:25:22.567Z,100783.38
2018-07-05T13:28:09.009Z,100785.11
2018-07-05T13:30:55.847Z,100782.47
2018-07-05T13:33:42.764Z,100788.52
2018-07-05T13:36:29.861Z,100794.73
2018-07-05T13:39:16.641Z,100793.22
2018-07-05T13:42:03.338Z,100793.50
2018-07-05T13:44:50.105Z,100794.92
2018-07-05T13:47:37.673Z,100799.73
2018-07-05T13:50:24.457Z,100793.66
2018-07-05T13:53:11.156Z,100790.89
2018-07-05T13:55:57.941Z,100783.63
2018-07-05T13:58:44.804Z,100789.19
2018-07-05T14:01:31.588Z,100785.81
2018-07-05T14:04:18.500Z,100787.94
2018-07-05T14:07:05.409Z,100780.18
2018-07-05T14:09:52.303Z,100773.84
2018-07-05T14:12:39.250Z,100776.67
2018-07-05T14:15:25.936Z,100772.36
2018-07-05T14:18:13.094Z,100768.15
2018-07-05T14:20:59.773Z,100761.77
2018-07-05T14:23:46.607Z,100763.66
2018-07-05T14:26:33.680Z,100760.89
2018-07-05T14:29:20.395Z,100757.33
2018-07-05T14:32:06.851Z,100756.52
2018-07-05T14:34:53.651Z,100755.75
2018-07-05T14:37:40.960Z,100760.52
2018-07-05T14:40:27.553Z,100765.46
2018-07-05T14:43:14.465Z,100761.44
2018-07-05T14:46:01.032Z,100757.14
2018-07-05T14:48:47.780Z,100762.78
2018-07-05T14:51:35.031Z,100756.69
2018-07-05T14:54:22.095Z,100758.45
2018-07-05T14:57:09.069Z,100747.11
2018-07-05T14:59:55.980Z,100750.85
2018-07-05T15:02:42.761Z,100743.83
2018-07-05T15:05:29.417Z,100754.16
2018-07-05T15:08:15.874Z,100754.95
2018-07-05T15:11:03.011Z,100758.00
2018-07-05T15:13:49.481Z,100756.29
2018-07-05T15:16:37.194Z,100751.50
2018-07-05T15:19:24.026Z,100753.24
2018-07-05T15:22:10.484Z,100756.98
2018-07-05T15:24:57.055Z,100755.15
2018-07-05T15:27:43.610Z,100745.80
2018-07-05T15:30:30.658Z,100754.48
2018-07-05T15:33:17.645Z,100748.16
2018-07-05T15:36:04.474Z,100741.04
2018-07-05T15:38:51.643Z,100748.84
2018-07-05T15:41:38.235Z,100747.05
2018-07-05T15:44:25.125Z,100742.59
2018-07-05T15:47:11.927Z,100747.14
2018-07-05T15:49:58.439Z,100746.30
2018-07-05T15:52:44.875Z,100744.68
2018-07-05T15:55:31.458Z,100751.09
2018-07-05T15:58:18.029Z,100756.08
2018-07-05T16:01:05.038Z,100761.86
2018-07-05T16:03:51.476Z,100767.70
2018-07-05T16:06:38.252Z,100769.34
2018-07-05T16:09:24.586Z,100766.66
2018-07-05T16:12:11.347Z,100763.64
2018-07-05T16:14:59.021Z,100758.69
2018-07-05T16:17:46.306Z,100767.87
2018-07-05T16:20:32.836Z,100762.80
2018-07-05T16:23:19.248Z,100766.31
2018-07-05T16:26:05.805Z,100765.84
2018-07-05T16:28:52.649Z,100766.95
2018-07-05T16:31:39.567Z,100759.58
2018-07-05T16:34:26.666Z,100759.84
2018-07-05T16:37:12.979Z,100756.78
2018-07-05T16:39:59.752Z,100758.82
2018-07-05T16:42:46.578Z,100757.92
2018-07-05T16:45:33.508Z,100761.99
2018-07-05T16:48:20.436Z,100758.20
2018-07-05T16:51:07.345Z,100753.23
2018-07-05T16:53:54.309Z,100754.31
2018-07-05T16:56:41.084Z,100756.82
2018-07-05T16:59:28.022Z,100748.49
2018-07-05T17:02:14.548Z,100756.30
2018-07-05T17:05:01.117Z,100753.38
2018-07-05T17:07:48.049Z,100753.17
2018-07-05T17:10:34.834Z,100754.09
2018-07-05T17:13:21.635Z,100755.89
2018-07-05T17:16:08.101Z,100761.35
2018-07-05T17:18:54.783Z,100752.18
2018-07-05T17:21:41.229Z,100752.26
2018-07-05T17:24:27.808Z,100751.48
2018-07-05T17:27:14.454Z,100748.06
2018-07-05T17:30:00.953Z,100746.16
2018-07-05T17:32:47.411Z,100757.23
2018-07-05T17:35:33.959Z,100758.00
2018-07-05T17:38:20.893Z,100758.92
2018-07-05T17:41:07.334Z,100758.76
2018-07-05T17:43:54.851Z,100756.25
2018-07-05T17:46:41.707Z,100758.35
2018-07-05T17:49:28.172Z,100755.22
2018-07-05T17:52:14.749Z,100763.41
2018-07-05T17:55:01.577Z,100760.27
2018-07-05T17:57:48.173Z,100756.74
2018-07-05T18:00:35.534Z,100766.27
2018-07-05T18:03:22.289Z,100769.63
2018-07-05T18:06:08.795Z,100775.27
2018-07-05T18:08:55.369Z,100779.83
2018-07-05T18:11:42.173Z,100776.53
2018-07-05T18:14:28.608Z,100781.05
2018-07-05T18:17:15.560Z,100782.62
2018-07-05T19:42:18.910Z,100808.56
2018-07-05T19:45:06.032Z,100806.75
2018-07-05T19:47:52.486Z,100809.13
2018-07-05T19:50:39.100Z,100817.59
2018-07-05T19:53:25.677Z,100811.40
2018-07-05T19:56:12.232Z,100813.37
2018-07-05T19:58:58.778Z,100810.92
2018-07-05T20:01:45.313Z,100812.09
2018-07-05T20:04:31.732Z,100811.41
2018-07-05T20:07:18.385Z,100807.70
2018-07-05T20:10:05.044Z,100796.19
2018-07-05T20:12:51.506Z,100812.69
2018-07-05T20:15:38.345Z,100805.77
2018-07-05T20:18:25.141Z,100809.66
2018-07-05T20:21:12.025Z,100804.91
2018-07-05T20:23:58.761Z,100799.89
2018-07-05T20:26:46.159Z,100799.80
2018-07-05T20:29:33.013Z,100811.08
2018-07-05T20:32:19.989Z,100805.02
2018-07-05T20:35:06.461Z,100807.34
2018-07-05T20:37:53.131Z,100810.77
2018-07-05T20:40:39.662Z,100810.16
2018-07-05T20:43:26.924Z,100803.77
2018-07-05T20:46:13.425Z,100807.72
2018-07-05T20:49:00.143Z,100809.14
2018-07-05T20:51:46.755Z,100801.53
2018-07-05T20:54:33.355Z,100803.48
2018-07-05T20:57:19.943Z,100816.98
2018-07-05T21:00:06.544Z,100817.06
2018-07-05T21:02:53.425Z,100813.20
2018-07-05T21:05:40.453Z,100814.89
2018-07-05T21:08:27.276Z,100814.08
2018-07-05T21:11:14.545Z,100810.89
2018-07-05T21:14:01.900Z,100808.05
2018-07-05T21:16:49.084Z,100807.05
2018-07-05T21:19:35.848Z,100805.71
2018-07-05T21:22:22.626Z,100804.75
2018-07-05T21:25:09.236Z,100807.23
2018-07-05T21:27:55.949Z,100804.44
2018-07-05T21:30:42.393Z,100808.59
2018-07-05T21:33:29.033Z,100807.70
2018-07-05T21:36:15.487Z,100805.06
2018-07-05T21:39:02.436Z,100806.53
2018-07-05T21:41:49.210Z,100805.95
2018-07-05T21:44:36.091Z,100801.09
2018-07-05T21:47:23.033Z,100799.16
2018-07-05T21:50:09.845Z,100798.95
2018-07-05T21:52:56.874Z,100799.47
2018-07-05T21:55:43.691Z,100797.16
2018-07-05T21:58:30.240Z,100802.45
2018-07-05T22:01:16.732Z,100794.22
2018-07-05T22:04:03.705Z,100796.53
2018-07-05T22:06:50.704Z,100794.99
2018-07-05T22:09:37.609Z,100790.91
2018-07-05T22:12:24.541Z,100791.33
2018-07-05T22:15:11.586Z,100800.02
2018-07-05T22:18:03.187Z,100792.37
2018-07-05T22:20:55.051Z,100791.31
2018-07-05T22:23:46.797Z,100796.51
2018-07-05T22:26:37.447Z,100791.84
2018-07-05T22:29:29.643Z,100791.20
2018-07-05T22:32:16.524Z,100790.94
2018-07-05T22:35:03.296Z,100791.53
2018-07-05T22:37:50.301Z,100793.56
2018-07-05T22:40:37.247Z,100792.19
2018-07-05T22:43:25.244Z,100786.17
2018-07-05T22:46:12.171Z,100795.25
2018-07-05T22:48:58.614Z,100797.14
2018-07-05T22:51:45.253Z,100799.42
2018-07-05T22:54:31.832Z,100801.31
2018-07-05T22:57:18.442Z,100804.48
2018-07-05T23:00:05.364Z,100803.00
2018-07-05T23:02:52.029Z,100801.65
2018-07-05T23:05:38.461Z,100804.13
2018-07-05T23:08:25.344Z,100794.82
2018-07-05T23:11:12.064Z,100797.66
2018-07-05T23:13:58.975Z,100802.41
2018-07-05T23:16:45.650Z,100795.67
2018-07-05T23:19:32.642Z,100787.03
2018-07-05T23:22:19.518Z,100790.58
2018-07-05T23:25:06.941Z,100789.37
2018-07-05T23:27:53.677Z,100789.39
2018-07-05T23:30:40.639Z,100787.27
2018-07-05T23:33:27.083Z,100787.45
2018-07-05T23:36:13.555Z,100787.34
2018-07-05T23:39:00.219Z,100782.11
2018-07-05T23:41:46.667Z,100785.05
2018-07-05T23:44:33.127Z,100777.55
2018-07-05T23:47:20.443Z,100786.31
2018-07-05T23:50:07.249Z,100780.94
2018-07-05T23:52:53.713Z,100780.25
2018-07-05T23:55:41.197Z,100780.55
2018-07-05T23:58:27.988Z,100778.39
